Terminal Aerodrome Forecast
Issued by NWS

Home | Current Version | Previous Version | Graphics & Text | Print | Product List | Glossary On
Versions: 1 2 3 4 5 6 7 8 9 10 11 12
000
FTUS45 KGGW 241100
TAFSDY
TAF
KSDY 241128Z 2412/2512 VRB06KT P6SM BKN150
     FM241300 27009KT P6SM BKN150
     FM241800 28017KT P6SM SCT090
     FM250100 29006KT P6SM SCT100
      AMD LTD TO CLD VIS AND WIND=

USA.gov is the U.S. government's official web portal to all federal, state and local government web resources and services.